createdAt,value
2018-11-02T00:00:41.507Z,19.60
2018-11-02T00:03:14.823Z,20.27
2018-11-02T00:05:43.817Z,20.40
2018-11-02T00:08:12.891Z,19.47
2018-11-02T00:10:41.826Z,21.23
2018-11-02T00:13:10.904Z,21.30
2018-11-02T00:15:40.103Z,20.73
2018-11-02T00:18:09.258Z,23.30
2018-11-02T00:20:38.282Z,20.27
2018-11-02T00:23:07.482Z,21.20
2018-11-02T00:25:36.646Z,21.90
2018-11-02T00:28:06.014Z,21.73
2018-11-02T00:30:35.074Z,20.70
2018-11-02T00:33:04.196Z,21.53
2018-11-02T00:35:33.302Z,23.20
2018-11-02T00:38:02.371Z,21.77
2018-11-02T00:40:31.327Z,21.77
2018-11-02T00:43:00.448Z,23.47
2018-11-02T00:45:29.543Z,21.30
2018-11-02T00:47:58.620Z,23.10
2018-11-02T00:50:27.692Z,23.10
2018-11-02T00:52:56.867Z,23.13
2018-11-02T00:55:25.783Z,22.30
2018-11-02T00:57:54.885Z,22.50
2018-11-02T01:00:24.404Z,24.93
2018-11-02T01:02:53.910Z,24.10
2018-11-02T01:05:22.808Z,22.60
2018-11-02T01:07:51.797Z,23.07
2018-11-02T01:10:21.014Z,23.13
2018-11-02T01:12:49.952Z,23.00
2018-11-02T01:15:19.254Z,22.90
2018-11-02T01:17:48.498Z,19.93
2018-11-02T01:20:17.549Z,22.13
2018-11-02T01:22:46.667Z,21.33
2018-11-02T01:25:15.701Z,20.67
2018-11-02T01:27:44.671Z,21.10
2018-11-02T01:30:13.674Z,19.20
2018-11-02T01:32:42.707Z,17.97
2018-11-02T01:35:11.862Z,18.70
2018-11-02T01:37:40.898Z,16.30
2018-11-02T01:40:10.460Z,16.73
2018-11-02T01:42:39.826Z,16.87
2018-11-02T01:45:08.861Z,15.70
2018-11-02T01:47:38.062Z,16.10
2018-11-02T01:50:09.529Z,14.23
2018-11-02T01:52:39.746Z,12.80
2018-11-02T01:55:08.935Z,13.27
2018-11-02T01:57:37.980Z,12.30
2018-11-02T02:00:07.958Z,12.80
2018-11-02T02:02:37.097Z,12.67
2018-11-02T02:05:06.571Z,12.30
2018-11-02T02:07:35.710Z,11.70
2018-11-02T02:10:05.092Z,11.70
2018-11-02T02:12:34.391Z,11.77
2018-11-02T02:15:03.478Z,11.27
2018-11-02T02:17:32.404Z,11.50
2018-11-02T02:20:01.514Z,12.13
2018-11-02T02:22:30.580Z,11.57
2018-11-02T02:24:59.789Z,12.30
2018-11-02T02:27:31.940Z,12.10
2018-11-02T02:30:01.117Z,11.57
2018-11-02T02:32:30.182Z,12.57
2018-11-02T02:34:59.319Z,13.30
2018-11-02T02:37:28.534Z,12.67
2018-11-02T02:39:57.716Z,12.10
2018-11-02T02:42:26.691Z,11.57
2018-11-02T02:44:56.000Z,10.60
2018-11-02T02:47:24.946Z,10.70
2018-11-02T02:49:54.190Z,10.70
2018-11-02T02:52:23.313Z,12.00
2018-11-02T02:54:52.547Z,10.93
2018-11-02T02:57:21.669Z,10.87
2018-11-02T02:59:50.671Z,10.50
2018-11-02T03:02:24.494Z,10.30
2018-11-02T03:04:56.278Z,9.90
2018-11-02T03:07:31.710Z,10.10
2018-11-02T03:10:08.243Z,9.20
2018-11-02T03:12:45.121Z,9.47
2018-11-02T03:15:17.556Z,9.40
2018-11-02T03:17:51.080Z,8.83
2018-11-02T03:20:24.466Z,8.87
2018-11-02T03:22:54.641Z,8.13
2018-11-02T03:25:24.899Z,7.00
2018-11-02T03:27:57.986Z,8.13
2018-11-02T03:30:29.538Z,8.23
2018-11-02T03:33:04.388Z,7.20
2018-11-02T03:35:37.712Z,7.80
2018-11-02T03:38:11.110Z,7.70
2018-11-02T03:40:42.301Z,7.50
2018-11-02T03:43:18.584Z,7.00
2018-11-02T03:45:49.399Z,7.27
2018-11-02T03:48:19.489Z,7.40
2018-11-02T03:50:51.156Z,7.03
2018-11-02T03:53:22.874Z,7.07
2018-11-02T03:55:54.683Z,7.80
2018-11-02T03:58:27.234Z,8.30
2018-11-02T04:00:58.376Z,8.23
2018-11-02T04:03:33.144Z,7.73
2018-11-02T04:06:02.756Z,8.30
2018-11-02T04:08:34.904Z,8.57
2018-11-02T04:11:04.212Z,8.10
2018-11-02T04:13:35.756Z,8.40
2018-11-02T04:16:05.776Z,8.60
2018-11-02T04:18:36.333Z,8.40
2018-11-02T04:21:07.906Z,9.30
2018-11-02T04:23:46.212Z,9.10
2018-11-02T04:26:16.197Z,9.10
2018-11-02T04:28:52.103Z,8.77
2018-11-02T04:31:34.097Z,7.67
2018-11-02T04:34:03.624Z,7.60
2018-11-02T04:36:32.971Z,8.67
2018-11-02T04:39:02.116Z,8.67
2018-11-02T04:41:32.010Z,7.80
2018-11-02T04:44:04.210Z,8.57
2018-11-02T04:46:35.061Z,8.33
2018-11-02T04:49:07.795Z,7.90
2018-11-02T04:51:39.866Z,7.60
2018-11-02T04:54:12.241Z,8.30
2018-11-02T04:56:43.853Z,8.53
2018-11-02T04:59:22.013Z,7.70
2018-11-02T05:02:00.334Z,8.03
2018-11-02T05:04:29.734Z,7.70
2018-11-02T05:07:00.481Z,8.23
2018-11-02T05:09:30.645Z,8.37
2018-11-02T05:12:02.907Z,9.27
2018-11-02T05:14:42.267Z,9.00
2018-11-02T05:17:16.425Z,8.50
2018-11-02T05:20:00.804Z,8.63
2018-11-02T05:22:30.617Z,8.47
2018-11-02T05:25:08.976Z,8.80
2018-11-02T05:27:40.399Z,7.90
2018-11-02T05:30:32.563Z,8.43
2018-11-02T05:33:11.286Z,7.23
2018-11-02T05:35:58.881Z,8.03
2018-11-02T05:38:41.321Z,9.20
2018-11-02T05:41:26.295Z,7.90
2018-11-02T05:43:58.316Z,8.33
2018-11-02T05:46:36.756Z,8.90
2018-11-02T06:13:11.612Z,9.10
2018-11-02T06:15:40.612Z,8.93
2018-11-02T06:18:10.787Z,9.40
2018-11-02T06:20:40.781Z,9.70
2018-11-02T06:23:10.218Z,9.70
2018-11-02T06:25:40.020Z,10.70
2018-11-02T06:28:09.909Z,9.50
2018-11-02T06:30:39.130Z,10.10
2018-11-02T06:33:08.034Z,10.50
2018-11-02T06:35:37.398Z,9.33
2018-11-02T06:38:06.809Z,10.10
2018-11-02T06:40:35.912Z,9.70
2018-11-02T06:43:05.421Z,9.73
2018-11-02T06:45:35.430Z,9.80
2018-11-02T06:48:04.493Z,10.47
2018-11-02T06:50:33.656Z,9.47
2018-11-02T06:53:02.732Z,10.30
2018-11-02T06:55:32.084Z,10.17
2018-11-02T06:58:01.485Z,9.40
2018-11-02T07:00:30.676Z,10.17
2018-11-02T07:02:59.852Z,9.73
2018-11-02T07:05:30.145Z,10.23
2018-11-02T07:07:59.501Z,10.50
2018-11-02T07:10:28.750Z,10.07
2018-11-02T07:12:58.100Z,9.33
2018-11-02T07:15:27.738Z,9.97
2018-11-02T07:17:56.998Z,9.43
2018-11-02T07:20:26.248Z,10.20
2018-11-02T07:22:55.435Z,8.63
2018-11-02T07:25:24.965Z,9.77
2018-11-02T07:27:54.956Z,10.23
2018-11-02T07:30:24.455Z,8.37
2018-11-02T07:32:53.789Z,8.70
2018-11-02T07:35:22.926Z,8.13
2018-11-02T07:37:52.358Z,7.87
2018-11-02T07:40:22.299Z,8.00
2018-11-02T07:42:51.412Z,9.50
2018-11-02T07:45:21.700Z,8.17
2018-11-02T07:47:51.149Z,7.80
2018-11-02T07:50:21.101Z,7.50
2018-11-02T07:52:50.512Z,7.93
2018-11-02T07:55:20.133Z,7.20
2018-11-02T07:57:49.377Z,7.40
2018-11-02T08:00:19.658Z,6.80
2018-11-02T08:02:49.184Z,6.27
2018-11-02T08:05:18.374Z,6.50
2018-11-02T08:07:48.898Z,6.40
2018-11-02T08:10:18.388Z,7.63
2018-11-02T08:12:47.771Z,7.20
2018-11-02T08:15:17.981Z,6.60
2018-11-02T08:17:51.790Z,7.87
2018-11-02T08:20:20.870Z,8.37
2018-11-02T08:22:51.256Z,7.90
2018-11-02T08:25:22.401Z,7.90
2018-11-02T08:27:53.083Z,8.23
2018-11-02T08:30:22.665Z,8.60
2018-11-02T08:32:52.661Z,9.30
2018-11-02T08:35:21.971Z,9.60
2018-11-02T08:37:51.363Z,9.03
2018-11-02T08:40:20.625Z,8.77
2018-11-02T08:42:49.865Z,9.43
2018-11-02T08:45:20.130Z,8.47
2018-11-02T08:47:49.632Z,8.20
2018-11-02T08:50:18.713Z,7.70
2018-11-02T08:52:48.133Z,7.10
2018-11-02T08:55:17.457Z,7.80
2018-11-02T08:57:47.039Z,7.73
2018-11-02T09:00:16.053Z,8.30
2018-11-02T09:02:45.270Z,6.80
2018-11-02T09:05:14.472Z,5.20
2018-11-02T09:07:43.819Z,5.00
2018-11-02T09:10:13.125Z,5.13
2018-11-02T09:12:42.145Z,4.63
2018-11-02T09:15:11.248Z,5.40
2018-11-02T09:17:40.585Z,3.93
2018-11-02T09:20:09.681Z,3.93
2018-11-02T09:22:38.849Z,3.80
2018-11-02T09:25:09.213Z,4.40
2018-11-02T09:27:38.521Z,3.63
2018-11-02T09:30:10.736Z,4.20
2018-11-02T09:32:39.919Z,4.03
2018-11-02T09:35:08.949Z,3.17
2018-11-02T09:37:38.689Z,3.10
2018-11-02T09:40:09.103Z,3.23
2018-11-02T09:42:38.940Z,2.23
2018-11-02T09:45:10.258Z,4.80
2018-11-02T09:47:39.491Z,3.40
2018-11-02T09:50:09.585Z,2.40
2018-11-02T09:52:39.465Z,2.40
2018-11-02T09:55:11.363Z,1.30
2018-11-02T09:57:40.706Z,1.30
2018-11-02T10:00:11.004Z,1.27
2018-11-02T10:02:40.607Z,1.60
2018-11-02T10:05:10.909Z,1.17
2018-11-02T10:07:40.942Z,1.00
2018-11-02T10:10:12.463Z,1.30
2018-11-02T10:12:41.746Z,1.70
2018-11-02T10:15:13.221Z,2.20
2018-11-02T10:17:42.485Z,0.97
2018-11-02T10:20:12.003Z,1.10
2018-11-02T10:22:41.336Z,1.20
2018-11-02T10:25:10.991Z,1.37
2018-11-02T10:27:41.746Z,0.90
2018-11-02T10:30:12.279Z,1.00
2018-11-02T10:32:43.047Z,1.20
2018-11-02T10:35:12.254Z,1.00
2018-11-02T10:37:41.476Z,1.40
2018-11-02T10:40:14.646Z,0.87
2018-11-02T10:43:00.495Z,1.10
2018-11-02T10:45:35.356Z,1.10
2018-11-02T10:48:05.703Z,1.30
2018-11-02T10:50:34.970Z,1.13
2018-11-02T10:53:04.074Z,1.83
2018-11-02T10:55:33.339Z,1.57
2018-11-02T10:58:07.551Z,1.10
2018-11-02T11:01:00.547Z,1.13
2018-11-02T11:03:30.525Z,1.20
2018-11-02T11:05:59.921Z,1.00
2018-11-02T11:08:30.571Z,1.33
2018-11-02T11:11:01.041Z,1.10
2018-11-02T11:13:32.199Z,1.57
2018-11-02T11:16:06.463Z,1.67
2018-11-02T11:18:39.894Z,1.37
2018-11-02T11:24:59.625Z,1.57
2018-11-02T11:27:31.016Z,1.30
2018-11-02T11:30:01.069Z,1.60
2018-11-02T11:32:33.353Z,1.40
2018-11-02T11:35:05.548Z,1.40
2018-11-02T11:37:40.648Z,1.63
2018-11-02T11:40:26.606Z,1.27
2018-11-02T11:43:00.495Z,1.60
2018-11-02T11:45:43.702Z,1.50
2018-11-02T11:49:17.670Z,1.67
2018-11-02T11:51:49.692Z,1.93
2018-11-02T11:54:33.513Z,1.60
2018-11-02T11:57:04.241Z,1.17
2018-11-02T11:59:39.481Z,1.60
2018-11-02T12:02:31.802Z,1.60
2018-11-02T12:05:03.335Z,1.50
2018-11-02T12:07:33.340Z,1.20
2018-11-02T12:10:29.683Z,1.23
2018-11-02T12:13:13.682Z,1.13
2018-11-02T12:15:44.131Z,1.67
2018-11-02T12:18:21.190Z,1.30
2018-11-02T12:21:01.079Z,1.07
2018-11-02T12:23:30.700Z,1.07
2018-11-02T12:26:00.656Z,1.50
2018-11-02T12:28:30.965Z,1.50
2018-11-02T12:31:01.411Z,1.87
2018-11-02T12:33:30.865Z,1.87
2018-11-02T12:36:00.199Z,1.60
2018-11-02T12:38:34.801Z,1.60
2018-11-02T12:41:04.929Z,1.50
2018-11-02T12:43:35.547Z,1.57
2018-11-02T12:46:10.775Z,1.57
2018-11-02T12:49:06.536Z,1.77
2018-11-02T12:54:37.750Z,1.30
2018-11-02T12:57:12.685Z,1.67
2018-11-02T12:59:44.369Z,1.60
2018-11-02T13:02:28.419Z,2.10
2018-11-02T13:05:01.583Z,1.93
2018-11-02T13:07:33.146Z,2.90
2018-11-02T13:10:02.443Z,2.30
2018-11-02T13:12:31.794Z,1.20
2018-11-02T13:15:04.722Z,1.50
2018-11-02T13:17:35.917Z,1.30
2018-11-02T13:20:07.380Z,1.30
2018-11-02T13:25:33.872Z,1.23
2018-11-02T13:28:03.245Z,1.70
2018-11-02T13:30:32.973Z,3.80
2018-11-02T13:33:03.360Z,2.10
2018-11-02T13:35:32.730Z,1.80
2018-11-02T13:38:02.317Z,1.20
2018-11-02T13:40:33.076Z,1.23
2018-11-02T13:43:04.103Z,1.40
2018-11-02T13:45:33.673Z,1.43
2018-11-02T13:48:03.788Z,1.90
2018-11-02T13:50:33.244Z,1.83
2018-11-02T13:53:03.566Z,1.87
2018-11-02T13:55:32.939Z,1.87
2018-11-02T13:58:02.899Z,1.50
2018-11-02T14:00:32.399Z,1.63
2018-11-02T14:03:01.818Z,1.80
2018-11-02T14:05:31.102Z,2.00
2018-11-02T14:08:00.285Z,2.03
2018-11-02T14:10:33.214Z,1.47
2018-11-02T14:13:03.406Z,1.53
2018-11-02T14:15:33.720Z,1.30
2018-11-02T14:18:20.181Z,1.10
2018-11-02T14:20:57.110Z,1.73
2018-11-02T14:23:29.275Z,1.70
2018-11-02T14:25:59.651Z,1.50
2018-11-02T14:28:30.843Z,2.47
2018-11-02T14:31:06.310Z,1.43
2018-11-02T14:33:35.938Z,1.30
2018-11-02T14:36:09.862Z,1.30
2018-11-02T14:38:41.402Z,1.43
2018-11-02T14:41:11.007Z,1.57
2018-11-02T14:43:41.230Z,3.03
2018-11-02T14:46:20.378Z,1.90
2018-11-02T14:48:50.987Z,1.20
2018-11-02T14:51:31.407Z,1.87
2018-11-02T14:54:00.876Z,1.40
2018-11-02T14:56:31.254Z,1.47
2018-11-02T14:59:01.088Z,1.60
2018-11-02T15:01:31.418Z,2.10
2018-11-02T15:04:01.047Z,1.60
2018-11-02T15:06:30.428Z,1.53
2018-11-02T15:08:59.912Z,1.73
2018-11-02T15:11:29.697Z,1.80
2018-11-02T15:13:59.141Z,1.90
2018-11-02T15:16:28.621Z,2.00
2018-11-02T15:18:59.447Z,2.30
2018-11-02T15:21:28.982Z,2.30
2018-11-02T15:23:58.460Z,1.83
2018-11-02T15:26:28.931Z,1.70
2018-11-02T15:28:58.432Z,2.13
2018-11-02T15:31:29.155Z,1.53
2018-11-02T15:34:05.228Z,2.13
2018-11-02T15:36:34.482Z,1.70
2018-11-02T15:39:04.752Z,2.03
2018-11-02T15:41:34.277Z,2.33
2018-11-02T15:44:04.499Z,1.80
2018-11-02T15:46:34.237Z,1.77
2018-11-02T15:49:04.441Z,1.40
2018-11-02T15:51:35.242Z,1.90
2018-11-02T15:54:05.628Z,1.30
2018-11-02T15:56:36.829Z,1.30
2018-11-02T15:59:07.458Z,1.50
2018-11-02T16:01:36.949Z,1.60
2018-11-02T16:04:06.802Z,1.33
2018-11-02T16:06:36.674Z,1.40
2018-11-02T16:09:10.221Z,1.90
2018-11-02T16:11:39.598Z,2.20
2018-11-02T16:14:08.905Z,1.97
2018-11-02T16:19:21.228Z,1.60
2018-11-02T16:21:51.725Z,1.50
2018-11-02T16:24:29.350Z,1.60
2018-11-02T16:26:59.103Z,1.30
2018-11-02T16:29:28.676Z,2.30
2018-11-02T16:32:00.974Z,1.80
2018-11-02T16:34:30.387Z,2.33
2018-11-02T16:36:59.999Z,2.50
2018-11-02T16:39:29.772Z,2.03
2018-11-02T16:41:59.687Z,2.70
2018-11-02T16:44:31.202Z,3.30
2018-11-02T16:53:02.670Z,2.07
2018-11-02T16:55:34.658Z,2.80
2018-11-02T16:58:07.218Z,2.30
2018-11-02T17:00:59.044Z,3.33
2018-11-02T17:03:33.194Z,2.60
2018-11-02T17:06:03.787Z,1.77
2018-11-02T17:08:35.537Z,1.90
2018-11-02T17:11:06.628Z,1.67
2018-11-02T17:13:39.551Z,1.70
2018-11-02T17:16:11.625Z,2.10
2018-11-02T17:18:48.746Z,1.90
2018-11-02T17:21:20.374Z,3.80
2018-11-02T17:23:51.559Z,2.50
2018-11-02T17:29:17.554Z,3.40
2018-11-02T17:31:48.429Z,2.47
2018-11-02T17:34:18.600Z,3.10
2018-11-02T17:37:02.361Z,2.43
2018-11-02T17:42:38.367Z,1.80
2018-11-02T17:45:09.573Z,4.10
2018-11-02T17:47:41.084Z,2.00
2018-11-02T17:50:14.451Z,2.33
2018-11-02T17:52:57.747Z,2.33
2018-11-02T17:55:33.091Z,2.30
2018-11-02T18:00:59.247Z,2.20
2018-11-02T18:03:30.874Z,2.70
2018-11-02T18:06:01.168Z,2.20
2018-11-02T18:08:42.229Z,2.70
2018-11-02T18:11:16.576Z,2.70
2018-11-02T18:13:47.596Z,2.63
2018-11-02T18:16:18.001Z,2.30
2018-11-02T18:21:51.952Z,2.70
2018-11-02T18:24:31.361Z,3.20
2018-11-02T18:27:19.161Z,3.10
2018-11-02T18:29:58.148Z,3.13
2018-11-02T18:32:34.328Z,2.83
2018-11-02T18:35:06.378Z,2.90
2018-11-02T18:37:49.298Z,2.87
2018-11-02T18:40:30.787Z,3.10
2018-11-02T18:43:01.242Z,2.60
2018-11-02T18:45:33.868Z,2.70
2018-11-02T18:48:09.612Z,2.67
2018-11-02T18:50:41.253Z,2.80
2018-11-02T18:53:30.356Z,2.60
2018-11-02T18:56:04.009Z,2.60
2018-11-02T18:58:34.571Z,2.50
2018-11-02T19:01:05.754Z,2.27
2018-11-02T19:03:36.138Z,2.50
2018-11-02T19:06:08.555Z,2.50
2018-11-02T19:09:08.805Z,2.97
2018-11-02T19:26:05.523Z,3.10
2018-11-02T19:28:52.685Z,2.33
2018-11-02T19:31:42.502Z,3.30
2018-11-02T19:34:15.336Z,2.73
2018-11-02T19:36:46.757Z,3.60
2018-11-02T19:39:23.317Z,2.77
2018-11-02T19:43:03.651Z,2.30
2018-11-02T19:45:38.076Z,2.23
2018-11-02T19:48:10.026Z,2.57
2018-11-02T19:50:40.454Z,2.40
2018-11-02T19:53:28.303Z,2.97
2018-11-02T19:55:57.877Z,2.40
2018-11-02T19:58:30.211Z,2.43
2018-11-02T20:01:04.088Z,1.93
2018-11-02T20:03:47.238Z,2.90
2018-11-02T20:06:17.781Z,3.20
2018-11-02T20:08:49.435Z,2.40
2018-11-02T20:11:21.723Z,2.90
2018-11-02T20:13:51.985Z,2.27
2018-11-02T20:19:27.346Z,2.97
2018-11-02T20:22:04.508Z,3.17
2018-11-02T20:25:00.348Z,3.03
2018-11-02T20:27:30.591Z,3.33
2018-11-02T20:30:02.116Z,2.97
2018-11-02T20:32:31.454Z,5.80
2018-11-02T20:38:16.918Z,3.13
2018-11-02T20:41:01.610Z,2.90
2018-11-02T20:43:31.262Z,2.87
2018-11-02T20:46:00.923Z,3.70
2018-11-02T20:48:34.613Z,3.70
2018-11-02T20:51:05.408Z,3.40
2018-11-02T20:53:34.827Z,3.93
2018-11-02T20:56:04.465Z,3.93
2018-11-02T20:58:33.923Z,4.20
2018-11-02T21:01:09.611Z,3.97
2018-11-02T21:03:40.406Z,4.27
2018-11-02T21:06:17.412Z,4.37
2018-11-02T21:08:58.093Z,4.30
2018-11-02T21:11:31.073Z,4.20
2018-11-02T21:14:00.275Z,4.77
2018-11-02T21:16:30.386Z,4.03
2018-11-02T21:19:00.976Z,5.20
2018-11-02T21:21:32.253Z,7.90
2018-11-02T21:24:01.504Z,5.33
2018-11-02T21:26:31.154Z,5.00
2018-11-02T21:32:00.674Z,5.93
2018-11-02T21:34:30.816Z,5.33
2018-11-02T21:37:11.807Z,5.20
2018-11-02T21:40:13.278Z,5.47
2018-11-02T21:42:58.244Z,5.13
2018-11-02T21:45:27.729Z,4.70
2018-11-02T21:48:04.759Z,5.33
2018-11-02T21:50:34.912Z,5.60
2018-11-02T21:53:07.151Z,5.27
2018-11-02T21:55:38.946Z,5.23
2018-11-02T21:58:09.824Z,4.10
2018-11-02T22:00:43.828Z,4.80
2018-11-02T22:03:14.666Z,4.00
2018-11-02T22:05:44.822Z,5.37
2018-11-02T22:08:18.674Z,4.57
2018-11-02T22:10:58.358Z,4.03
2018-11-02T22:13:27.774Z,4.13
2018-11-02T22:15:58.270Z,4.03
2018-11-02T22:18:29.043Z,4.13
2018-11-02T22:20:59.409Z,4.60
2018-11-02T22:23:31.923Z,4.23
2018-11-02T22:26:03.759Z,4.60
2018-11-02T22:28:59.959Z,3.93
2018-11-02T22:31:30.097Z,5.07
2018-11-02T22:34:00.312Z,4.37
2018-11-02T22:36:31.141Z,4.13
2018-11-02T22:39:00.493Z,4.17
2018-11-02T22:45:02.157Z,4.80
2018-11-02T22:47:33.629Z,4.37
2018-11-02T22:51:13.399Z,4.30
2018-11-02T22:54:09.830Z,4.50
2018-11-02T23:07:05.313Z,5.03
2018-11-02T23:10:20.553Z,5.13
2018-11-02T23:16:05.063Z,4.87
2018-11-02T23:43:09.028Z,5.33
